KLM994 EHAM-ELLX
Flight info
| Callsign | KLM994 |
|---|---|
| Flight time | N/A |
| Altitude | 27000 |
| Route | LOPIK N852 LNO |
| Aircraft | A320/M-SDE3FGHIRWY/LB1 |
Departure
| Time | 2026-05-07 10:43 |
|---|---|
| Airport | Amsterdam Airport Schiphol (EHAM) |
Arrival
| Time | N/A |
|---|---|
| Airport | Luxembourg-Findel International Airport (ELLX) |
| Time | Latitude | Longitude | Altitude | Speed | Heading |
|---|---|---|---|---|---|
| 2026-05-07 10:23 | 52.31144 | 4.76518 | -2 ft | 0 kts | 125° |
| 2026-05-07 10:29 | 52.31148 | 4.76510 | -2 ft | 2 kts | 125° |
| 2026-05-07 10:30 | 52.31166 | 4.76467 | -2 ft | 2 kts | 118° |
| 2026-05-07 10:30 | 52.31173 | 4.76443 | -2 ft | 2 kts | 92° |
| 2026-05-07 10:30 | 52.31168 | 4.76419 | -2 ft | 2 kts | 14° |
| 2026-05-07 10:30 | 52.31166 | 4.76417 | -2 ft | 0 kts | 5° |
| 2026-05-07 10:33 | 52.31168 | 4.76418 | -2 ft | 2 kts | 5° |
| 2026-05-07 10:34 | 52.31205 | 4.76423 | -2 ft | 6 kts | 6° |
| 2026-05-07 10:34 | 52.31245 | 4.76434 | -2 ft | 5 kts | 11° |
| 2026-05-07 10:34 | 52.31280 | 4.76443 | -2 ft | 7 kts | 7° |
| 2026-05-07 10:34 | 52.31358 | 4.76433 | -2 ft | 13 kts | 346° |
| 2026-05-07 10:35 | 52.31447 | 4.76374 | -2 ft | 15 kts | 341° |
| 2026-05-07 10:35 | 52.31530 | 4.76266 | -2 ft | 17 kts | 295° |
| 2026-05-07 10:35 | 52.31535 | 4.76079 | -2 ft | 16 kts | 265° |
| 2026-05-07 10:35 | 52.31527 | 4.75902 | -2 ft | 15 kts | 266° |
| 2026-05-07 10:36 | 52.31524 | 4.75740 | -2 ft | 14 kts | 268° |
| 2026-05-07 10:36 | 52.31518 | 4.75592 | -3 ft | 12 kts | 266° |
| 2026-05-07 10:36 | 52.31513 | 4.75460 | -3 ft | 11 kts | 266° |
| 2026-05-07 10:36 | 52.31508 | 4.75340 | -3 ft | 10 kts | 266° |
| 2026-05-07 10:37 | 52.31504 | 4.75231 | -3 ft | 10 kts | 268° |
| 2026-05-07 10:37 | 52.31499 | 4.75037 | -2 ft | 21 kts | 267° |
| 2026-05-07 10:37 | 52.31492 | 4.74786 | -2 ft | 23 kts | 267° |
| 2026-05-07 10:37 | 52.31482 | 4.74513 | -2 ft | 25 kts | 266° |
| 2026-05-07 10:38 | 52.31461 | 4.74228 | -2 ft | 25 kts | 233° |
| 2026-05-07 10:38 | 52.31299 | 4.74130 | -2 ft | 26 kts | 184° |
| 2026-05-07 10:38 | 52.31111 | 4.74111 | -3 ft | 28 kts | 183° |
| 2026-05-07 10:38 | 52.30911 | 4.74092 | -3 ft | 30 kts | 183° |
| 2026-05-07 10:39 | 52.30699 | 4.74075 | -2 ft | 31 kts | 182° |
| 2026-05-07 10:39 | 52.30511 | 4.74061 | -2 ft | 23 kts | 182° |
| 2026-05-07 10:39 | 52.30434 | 4.74055 | -2 ft | 1 kts | 182° |
| 2026-05-07 10:39 | 52.30424 | 4.74054 | -2 ft | 5 kts | 184° |
| 2026-05-07 10:40 | 52.30339 | 4.74034 | -2 ft | 14 kts | 196° |
| 2026-05-07 10:40 | 52.30269 | 4.73975 | -2 ft | 10 kts | 217° |
| 2026-05-07 10:40 | 52.30216 | 4.73908 | -3 ft | 10 kts | 219° |
| 2026-05-07 10:40 | 52.30194 | 4.73811 | -3 ft | 9 kts | 276° |
| 2026-05-07 10:41 | 52.30232 | 4.73744 | -5 ft | 9 kts | 346° |
| 2026-05-07 10:41 | 52.30291 | 4.73747 | -7 ft | 0 kts | 3° |
| 2026-05-07 10:41 | 52.30294 | 4.73747 | -7 ft | 1 kts | 3° |
| 2026-05-07 10:41 | 52.30302 | 4.73748 | -8 ft | 1 kts | 3° |
| 2026-05-07 10:42 | 52.30312 | 4.73749 | -8 ft | 1 kts | 3° |
| 2026-05-07 10:42 | 52.30321 | 4.73750 | -8 ft | 1 kts | 2° |
| 2026-05-07 10:42 | 52.30327 | 4.73750 | -8 ft | 1 kts | 2° |
| 2026-05-07 10:42 | 52.30396 | 4.73755 | -6 ft | 28 kts | 2° |
| 2026-05-07 10:43 | 52.30857 | 4.73792 | -1 ft | 109 kts | 3° |
| 2026-05-07 10:43 | 52.31888 | 4.73892 | -2 ft | 182 kts | 3° |
| 2026-05-07 10:43 | 52.33228 | 4.74099 | 677 ft | 193 kts | 11° |
| 2026-05-07 10:43 | 52.34446 | 4.74929 | 1711 ft | 191 kts | 30° |
| 2026-05-07 10:44 | 52.35651 | 4.75908 | 2261 ft | 202 kts | 22° |
| 2026-05-07 10:44 | 52.36912 | 4.77121 | 2751 ft | 222 kts | 49° |
| 2026-05-07 10:44 | 52.37441 | 4.79462 | 3679 ft | 227 kts | 89° |
| 2026-05-07 10:44 | 52.37101 | 4.81948 | 4646 ft | 232 kts | 117° |
| 2026-05-07 10:45 | 52.36022 | 4.83935 | 5528 ft | 240 kts | 145° |
| 2026-05-07 10:45 | 52.34401 | 4.84999 | 5909 ft | 265 kts | 174° |
| 2026-05-07 10:45 | 52.32508 | 4.84987 | 6498 ft | 272 kts | 182° |
| 2026-05-07 10:45 | 52.30599 | 4.84899 | 7522 ft | 274 kts | 181° |
| 2026-05-07 10:46 | 52.28708 | 4.84839 | 8495 ft | 278 kts | 181° |
| 2026-05-07 10:46 | 52.26772 | 4.85077 | 9450 ft | 283 kts | 168° |
| 2026-05-07 10:46 | 52.24898 | 4.86131 | 10368 ft | 288 kts | 153° |
| 2026-05-07 10:46 | 52.23175 | 4.88004 | 10850 ft | 310 kts | 142° |
| 2026-05-07 10:47 | 52.21405 | 4.90314 | 11265 ft | 331 kts | 141° |
| 2026-05-07 10:47 | 52.19612 | 4.92664 | 11987 ft | 339 kts | 141° |
| 2026-05-07 10:47 | 52.17754 | 4.95090 | 12829 ft | 344 kts | 142° |
| 2026-05-07 10:47 | 52.15868 | 4.97545 | 13649 ft | 349 kts | 142° |
| 2026-05-07 10:48 | 52.13954 | 5.00033 | 14410 ft | 354 kts | 142° |
| 2026-05-07 10:48 | 52.12011 | 5.02547 | 14884 ft | 359 kts | 142° |
| 2026-05-07 10:48 | 52.09952 | 5.04829 | 15039 ft | 358 kts | 152° |
| 2026-05-07 10:48 | 52.07671 | 5.06418 | 15075 ft | 357 kts | 164° |
| 2026-05-07 10:49 | 52.05277 | 5.07485 | 15074 ft | 356 kts | 166° |
| 2026-05-07 10:49 | 52.02885 | 5.08535 | 15073 ft | 356 kts | 166° |
| 2026-05-07 10:49 | 52.00496 | 5.09590 | 15073 ft | 356 kts | 166° |
| 2026-05-07 10:49 | 51.98110 | 5.10654 | 15073 ft | 356 kts | 166° |
| 2026-05-07 10:50 | 51.95719 | 5.11725 | 15069 ft | 356 kts | 166° |
| 2026-05-07 10:50 | 51.93332 | 5.12792 | 15066 ft | 356 kts | 166° |
| 2026-05-07 10:50 | 51.90946 | 5.13863 | 15070 ft | 356 kts | 165° |
| 2026-05-07 10:50 | 51.88561 | 5.14930 | 15071 ft | 355 kts | 165° |
| 2026-05-07 10:51 | 51.86174 | 5.15990 | 15072 ft | 355 kts | 166° |
| 2026-05-07 10:51 | 51.83787 | 5.17046 | 15073 ft | 355 kts | 166° |
| 2026-05-07 10:51 | 51.81402 | 5.18100 | 15074 ft | 355 kts | 166° |
| 2026-05-07 10:51 | 51.79018 | 5.19155 | 15075 ft | 355 kts | 166° |
| 2026-05-07 10:52 | 51.76635 | 5.20208 | 15077 ft | 355 kts | 166° |
| 2026-05-07 10:52 | 51.74247 | 5.21265 | 15076 ft | 355 kts | 166° |
| 2026-05-07 10:52 | 51.71864 | 5.22314 | 15076 ft | 355 kts | 166° |
| 2026-05-07 10:52 | 51.69480 | 5.23360 | 15074 ft | 355 kts | 166° |
| 2026-05-07 10:53 | 51.67092 | 5.24408 | 15072 ft | 355 kts | 166° |
| 2026-05-07 10:53 | 51.64705 | 5.25458 | 15074 ft | 356 kts | 166° |
| 2026-05-07 10:53 | 51.62319 | 5.26509 | 15076 ft | 356 kts | 166° |
| 2026-05-07 10:53 | 51.59932 | 5.27557 | 15078 ft | 355 kts | 166° |
| 2026-05-07 10:54 | 51.57547 | 5.28601 | 15077 ft | 355 kts | 166° |
| 2026-05-07 10:54 | 51.55164 | 5.29643 | 15082 ft | 355 kts | 166° |
| 2026-05-07 10:54 | 51.52779 | 5.30685 | 15083 ft | 355 kts | 166° |
| 2026-05-07 10:54 | 51.50394 | 5.31731 | 15082 ft | 355 kts | 166° |
| 2026-05-07 10:55 | 51.48008 | 5.32777 | 15085 ft | 355 kts | 166° |
| 2026-05-07 10:55 | 51.45621 | 5.33815 | 15084 ft | 355 kts | 166° |
| 2026-05-07 10:55 | 51.43239 | 5.34847 | 15082 ft | 355 kts | 166° |
| 2026-05-07 10:55 | 51.40851 | 5.35884 | 15084 ft | 355 kts | 166° |
| 2026-05-07 10:56 | 51.38465 | 5.36923 | 15086 ft | 355 kts | 166° |
| 2026-05-07 10:56 | 51.36079 | 5.37967 | 15084 ft | 355 kts | 166° |
| 2026-05-07 10:56 | 51.33695 | 5.39011 | 15082 ft | 355 kts | 166° |
| 2026-05-07 10:56 | 51.31310 | 5.40053 | 15042 ft | 355 kts | 166° |
| 2026-05-07 10:57 | 51.28928 | 5.41091 | 15046 ft | 355 kts | 166° |
| 2026-05-07 10:57 | 51.26573 | 5.42111 | 15041 ft | 355 kts | 166° |
| 2026-05-07 10:57 | 51.24177 | 5.43045 | 15044 ft | 355 kts | 168° |
| 2026-05-07 10:57 | 51.21763 | 5.43871 | 15043 ft | 355 kts | 169° |
| 2026-05-07 10:58 | 51.19342 | 5.44639 | 15040 ft | 354 kts | 170° |
| 2026-05-07 10:58 | 51.16926 | 5.45434 | 15042 ft | 355 kts | 168° |
| 2026-05-07 10:58 | 51.14531 | 5.46373 | 15043 ft | 355 kts | 166° |
| 2026-05-07 10:58 | 51.13280 | 5.46908 | 15042 ft | 355 kts | 166° |
| 2026-05-07 11:13 | 51.13118 | 5.46978 | 15049 ft | 355 kts | 166° |